Time;durP1;ratioP1;P1;durP2;ratioP2;P2;SDS_P1;SDS_P2;PMS_P1;PMS_P2;Temp;Humidity;BMP_temperature;BMP_pressure;BME280_temperature;BME280_humidity;BME280_pressure;Samples;Min_cycle;Max_cycle;Signal;HPM_P1;HPM_P2
2022/04/18 00:00:54;;;;;;;36.27;7.40;;;6.10;19.90;;;;;;5030649;28;20478;-60
2022/04/18 00:03:20;;;;;;;37.20;8.30;;;6.00;19.80;;;;;;5022661;28;20471;-60
2022/04/18 00:05:47;;;;;;;37.57;8.10;;;6.00;20.20;;;;;;5028999;28;20458;-60
2022/04/18 00:08:14;;;;;;;37.77;8.13;;;6.00;20.20;;;;;;5034373;28;20866;-59
2022/04/18 00:10:41;;;;;;;36.70;7.37;;;6.00;20.20;;;;;;5025317;28;20459;-60
2022/04/18 00:13:07;;;;;;;38.40;8.20;;;5.90;20.30;;;;;;5026701;28;21003;-59
2022/04/18 00:15:36;;;;;;;38.50;7.93;;;5.90;20.20;;;;;;5024924;28;20474;-60
2022/04/18 00:18:05;;;;;;;43.23;7.80;;;5.90;20.40;;;;;;5026080;28;21211;-59
2022/04/18 00:20:32;;;;;;;37.43;7.07;;;5.90;20.30;;;;;;5019515;28;20473;-60
2022/04/18 00:22:58;;;;;;;38.13;7.43;;;5.80;20.30;;;;;;5025043;28;20574;-59
2022/04/18 00:25:25;;;;;;;36.93;8.20;;;5.80;20.70;;;;;;5026505;28;20454;-58
2022/04/18 00:27:52;;;;;;;36.40;7.67;;;5.80;20.70;;;;;;5026121;28;20482;-59
2022/04/18 00:30:19;;;;;;;40.50;7.87;;;5.80;20.80;;;;;;5024942;28;20471;-60
2022/04/18 00:32:46;;;;;;;39.13;8.73;;;5.70;20.70;;;;;;5025151;28;20458;-59
2022/04/18 00:35:14;;;;;;;38.27;8.07;;;5.70;21.00;;;;;;5025379;28;20467;-60
2022/04/18 00:37:41;;;;;;;37.57;7.10;;;5.70;21.10;;;;;;5025727;28;20494;-59
2022/04/18 00:40:11;;;;;;;37.07;7.43;;;5.70;21.40;;;;;;5027127;28;20459;-60
2022/04/18 00:42:38;;;;;;;37.70;7.67;;;5.70;21.60;;;;;;5029788;28;20483;-61
2022/04/18 00:45:06;;;;;;;37.87;8.03;;;5.60;21.80;;;;;;5022072;28;20472;-61
2022/04/18 00:47:32;;;;;;;37.00;7.50;;;5.60;22.00;;;;;;5021694;28;20696;-61
2022/04/18 00:49:59;;;;;;;36.13;8.77;;;5.60;22.30;;;;;;5022093;28;20474;-60
2022/04/18 00:52:28;;;;;;;38.20;7.90;;;5.60;22.50;;;;;;5036869;28;20462;-60
2022/04/18 00:54:56;;;;;;;39.13;7.13;;;5.50;22.60;;;;;;5026766;28;20961;-60
2022/04/18 00:57:25;;;;;;;39.47;7.37;;;5.50;22.30;;;;;;5023978;28;21015;-60
2022/04/18 00:59:52;;;;;;;37.00;7.50;;;5.50;22.20;;;;;;5025615;28;20919;-59
2022/04/18 01:02:18;;;;;;;42.60;9.27;;;5.50;22.10;;;;;;5024213;28;20475;-60
2022/04/18 01:04:45;;;;;;;38.90;7.33;;;5.50;22.00;;;;;;5031827;28;20986;-60
2022/04/18 01:07:13;;;;;;;36.93;7.53;;;5.50;22.10;;;;;;5038668;28;20487;-60
2022/04/18 01:09:41;;;;;;;36.80;7.50;;;5.50;22.40;;;;;;5030970;28;20455;-60
2022/04/18 01:12:08;;;;;;;37.67;8.07;;;5.50;22.50;;;;;;5034881;28;20449;-61
2022/04/18 01:14:36;;;;;;;38.13;8.30;;;5.40;22.20;;;;;;5038567;28;20486;-60
2022/04/18 01:17:03;;;;;;;41.17;8.70;;;5.40;22.50;;;;;;5028987;28;20475;-60
2022/04/18 01:19:30;;;;;;;38.73;7.60;;;5.40;22.30;;;;;;5030190;28;20463;-59
2022/04/18 01:21:58;;;;;;;39.10;7.50;;;5.30;22.50;;;;;;5032543;28;20478;-61
2022/04/18 01:29:55;;;;;;;37.07;7.17;;;5.20;22.80;;;;;;5034058;28;20446;-60
2022/04/18 01:32:22;;;;;;;37.20;7.80;;;5.20;22.90;;;;;;5034626;28;20486;-60
2022/04/18 01:34:49;;;;;;;36.87;7.53;;;5.20;22.90;;;;;;5029490;28;20471;-60
2022/04/18 01:37:17;;;;;;;37.70;7.67;;;5.20;23.00;;;;;;5032928;28;20547;-60
2022/04/18 01:39:43;;;;;;;37.00;7.27;;;5.10;23.20;;;;;;5032165;28;20458;-60
2022/04/18 01:42:10;;;;;;;41.10;8.00;;;5.10;23.20;;;;;;5033161;28;20505;-61
2022/04/18 01:44:37;;;;;;;38.03;8.10;;;5.10;23.20;;;;;;5032974;28;20830;-61
2022/04/18 01:47:04;;;;;;;37.97;9.20;;;5.10;23.30;;;;;;5031096;28;20493;-61
2022/04/18 01:49:31;;;;;;;37.83;8.60;;;5.10;23.20;;;;;;5034965;28;20473;-60
2022/04/18 01:51:57;;;;;;;36.37;6.87;;;5.10;23.80;;;;;;5034401;28;20498;-60
2022/04/18 01:54:26;;;;;;;36.97;7.47;;;5.10;23.50;;;;;;5035127;28;20494;-60
2022/04/18 01:56:52;;;;;;;38.00;7.23;;;5.10;23.70;;;;;;5038762;28;20485;-60
2022/04/18 01:59:19;;;;;;;38.00;8.30;;;5.10;23.50;;;;;;5030562;28;20462;-60
2022/04/18 02:01:46;;;;;;;39.50;7.57;;;5.00;23.40;;;;;;5027218;28;20483;-61
2022/04/18 02:04:13;;;;;;;37.10;7.40;;;5.00;23.80;;;;;;5027086;28;20456;-60
2022/04/18 02:06:39;;;;;;;37.67;7.60;;;5.00;23.80;;;;;;5026069;28;20996;-61
2022/04/18 02:09:06;;;;;;;37.30;7.20;;;4.90;23.90;;;;;;5031140;28;20466;-59
2022/04/18 02:11:34;;;;;;;38.87;7.77;;;4.90;23.90;;;;;;5031487;28;20462;-61
2022/04/18 02:14:01;;;;;;;37.47;7.40;;;4.90;24.10;;;;;;5036291;28;20455;-60
2022/04/18 02:16:28;;;;;;;37.30;7.90;;;4.90;24.10;;;;;;5025042;28;20468;-61
2022/04/18 02:18:55;;;;;;;36.60;7.03;;;4.90;24.20;;;;;;5028677;28;20492;-60
2022/04/18 02:21:23;;;;;;;37.00;7.90;;;4.80;24.10;;;;;;5029236;28;20466;-60
2022/04/18 02:23:50;;;;;;;38.67;7.20;;;4.80;24.10;;;;;;5023556;28;20565;-60
2022/04/18 02:26:17;;;;;;;38.33;8.03;;;4.80;24.30;;;;;;5030630;28;20459;-60
2022/04/18 02:28:45;;;;;;;37.70;8.03;;;4.80;24.50;;;;;;5029955;28;20478;-60
2022/04/18 02:31:12;;;;;;;38.07;8.80;;;4.80;24.50;;;;;;5025921;28;20482;-60
2022/04/18 02:33:38;;;;;;;40.80;7.77;;;4.70;24.60;;;;;;5027709;28;20463;-61
2022/04/18 02:36:05;;;;;;;38.40;7.80;;;4.70;24.40;;;;;;5027215;28;20454;-60
2022/04/18 02:38:32;;;;;;;38.10;8.60;;;4.70;24.60;;;;;;5027890;28;21136;-60
2022/04/18 02:40:59;;;;;;;37.00;8.27;;;4.70;24.40;;;;;;5024787;28;20463;-61
2022/04/18 02:43:25;;;;;;;38.50;8.20;;;4.70;24.50;;;;;;5027344;28;20483;-60
2022/04/18 02:45:54;;;;;;;36.40;7.57;;;4.70;24.80;;;;;;5027696;28;20854;-60
2022/04/18 02:48:21;;;;;;;38.00;7.90;;;4.60;24.70;;;;;;5027325;28;20495;-60
2022/04/18 02:50:47;;;;;;;38.20;8.30;;;4.60;24.90;;;;;;5025943;28;20470;-59
2022/04/18 02:53:14;;;;;;;36.67;7.57;;;4.60;25.10;;;;;;5023821;28;20479;-60
2022/04/18 02:55:41;;;;;;;37.90;8.57;;;4.60;25.10;;;;;;5036201;28;20458;-59
2022/04/18 02:58:08;;;;;;;38.20;7.50;;;4.60;25.10;;;;;;5031570;28;20944;-61
2022/04/18 03:00:34;;;;;;;36.37;8.00;;;4.60;25.40;;;;;;5025944;28;20477;-60
2022/04/18 03:03:02;;;;;;;37.90;7.30;;;4.60;25.40;;;;;;5036741;28;20505;-60
2022/04/18 03:05:29;;;;;;;37.10;7.73;;;4.50;25.40;;;;;;5027906;28;20471;-59
2022/04/18 03:07:56;;;;;;;37.93;7.47;;;4.50;25.70;;;;;;5028350;28;21034;-60
2022/04/18 03:13:03;;;;;;;38.33;7.60;;;4.50;25.70;;;;;;5026210;28;20477;-60
2022/04/18 03:15:30;;;;;;;38.07;8.27;;;4.40;25.50;;;;;;5022454;28;20956;-60
2022/04/18 03:17:57;;;;;;;37.37;7.77;;;4.40;25.50;;;;;;5029321;28;20481;-59
2022/04/18 03:20:25;;;;;;;38.07;8.20;;;4.40;25.50;;;;;;5028030;28;20568;-59
2022/04/18 03:22:52;;;;;;;38.87;8.17;;;4.40;25.40;;;;;;5024366;28;20486;-60
2022/04/18 03:25:19;;;;;;;38.90;6.90;;;4.40;25.50;;;;;;5027834;28;20474;-60
2022/04/18 03:27:45;;;;;;;43.93;7.60;;;4.40;25.40;;;;;;5028165;28;20486;-59
2022/04/18 03:30:13;;;;;;;35.57;6.57;;;4.30;25.50;;;;;;5027094;28;20467;-60
2022/04/18 03:32:40;;;;;;;37.27;7.50;;;4.30;25.40;;;;;;5025061;28;20459;-60
2022/04/18 03:35:07;;;;;;;36.27;6.27;;;4.30;25.40;;;;;;5024360;28;20466;-61
2022/04/18 03:40:19;;;;;;;37.87;6.90;;;4.20;25.40;;;;;;5025755;28;20975;-59
2022/04/18 03:42:46;;;;;;;40.03;7.83;;;4.20;25.30;;;;;;5019056;28;20474;-59
2022/04/18 03:45:13;;;;;;;37.47;7.23;;;4.20;25.20;;;;;;5026925;28;20467;-60
2022/04/18 03:47:40;;;;;;;38.70;7.20;;;4.10;25.10;;;;;;5026027;28;20481;-58
2022/04/18 03:50:07;;;;;;;38.63;6.80;;;4.10;25.10;;;;;;5027279;28;20472;-61
2022/04/18 03:52:35;;;;;;;41.33;7.40;;;4.10;25.20;;;;;;5026703;28;20837;-59
2022/04/18 03:55:01;;;;;;;35.60;6.00;;;4.10;24.90;;;;;;5023078;28;20976;-60
2022/04/18 03:57:28;;;;;;;37.00;7.03;;;4.00;24.90;;;;;;5026957;28;20497;-59
2022/04/18 03:59:55;;;;;;;37.70;6.97;;;4.00;24.80;;;;;;5022332;28;20703;-59
2022/04/18 04:02:22;;;;;;;37.50;7.20;;;4.00;24.70;;;;;;5017154;28;20480;-59
2022/04/18 04:04:48;;;;;;;36.90;6.97;;;4.00;24.70;;;;;;5025629;28;20463;-60
2022/04/18 04:07:15;;;;;;;38.20;6.67;;;3.90;24.60;;;;;;5022550;28;20484;-61
2022/04/18 04:09:43;;;;;;;36.60;7.00;;;3.90;24.80;;;;;;5026426;28;20463;-62
2022/04/18 04:12:10;;;;;;;38.23;6.53;;;3.90;24.80;;;;;;5022915;28;20470;-60
2022/04/18 04:14:37;;;;;;;38.40;6.60;;;3.80;25.10;;;;;;5027973;28;20964;-60
2022/04/18 04:17:04;;;;;;;37.93;7.40;;;3.80;25.10;;;;;;5021898;28;20486;-63
2022/04/18 04:19:30;;;;;;;37.27;7.27;;;3.80;25.40;;;;;;5023648;28;20463;-61
2022/04/18 04:21:57;;;;;;;39.50;7.10;;;3.80;25.50;;;;;;5026424;28;20964;-59
2022/04/18 04:24:24;;;;;;;36.97;6.30;;;3.80;25.70;;;;;;5024995;28;20502;-61
2022/04/18 04:26:52;;;;;;;36.87;6.67;;;3.80;25.80;;;;;;5024100;28;20475;-60
2022/04/18 04:29:19;;;;;;;38.23;6.97;;;3.80;25.60;;;;;;5023587;28;21019;-62
2022/04/18 04:31:46;;;;;;;36.80;6.60;;;3.90;25.70;;;;;;5022505;28;20483;-59
2022/04/18 04:34:13;;;;;;;41.53;6.60;;;3.90;25.80;;;;;;5022474;28;21033;-61
2022/04/18 04:36:41;;;;;;;36.30;6.87;;;3.90;25.50;;;;;;5020608;28;20528;-61
2022/04/18 04:39:08;;;;;;;37.23;6.40;;;3.90;25.60;;;;;;5027889;28;20463;-60
2022/04/18 04:41:35;;;;;;;36.00;6.23;;;3.90;25.40;;;;;;5025698;28;20566;-59
2022/04/18 04:44:04;;;;;;;38.43;6.37;;;3.90;25.10;;;;;;5025379;28;21038;-59
2022/04/18 04:46:30;;;;;;;36.83;6.67;;;4.00;24.90;;;;;;5025674;28;20474;-59
2022/04/18 04:48:57;;;;;;;36.37;6.67;;;4.00;24.80;;;;;;5027901;28;20848;-62
2022/04/18 04:51:24;;;;;;;36.20;5.90;;;4.00;24.70;;;;;;5028078;28;20459;-60
2022/04/18 04:53:51;;;;;;;36.20;5.50;;;4.10;24.70;;;;;;5027846;28;20462;-60
2022/04/18 04:56:19;;;;;;;37.50;6.90;;;4.10;24.40;;;;;;5025882;28;20997;-59
2022/04/18 04:58:46;;;;;;;37.77;6.33;;;4.20;24.10;;;;;;5025433;28;20470;-59
2022/04/18 05:01:14;;;;;;;38.83;5.30;;;4.20;24.10;;;;;;5025129;28;20853;-60
2022/04/18 05:03:41;;;;;;;37.13;6.50;;;4.30;24.10;;;;;;5018001;28;20913;-57
2022/04/18 05:06:08;;;;;;;37.10;5.53;;;4.50;24.20;;;;;;5027808;28;20479;-60
2022/04/18 05:08:34;;;;;;;36.37;5.43;;;4.90;24.00;;;;;;5028047;28;21058;-60
2022/04/18 05:11:02;;;;;;;35.87;5.53;;;5.50;23.00;;;;;;5024462;28;20474;-61
2022/04/18 05:13:28;;;;;;;36.60;5.90;;;5.90;21.90;;;;;;5027703;28;20458;-59
2022/04/18 05:15:55;;;;;;;37.00;5.80;;;6.30;21.30;;;;;;5016453;28;20501;-60
2022/04/18 05:18:24;;;;;;;36.20;5.83;;;6.60;21.30;;;;;;5032673;28;20478;-59
2022/04/18 05:20:50;;;;;;;37.10;7.07;;;6.90;21.10;;;;;;5025538;28;20466;-60
2022/04/18 05:23:20;;;;;;;34.80;5.77;;;7.20;21.50;;;;;;5025177;28;21019;-61
2022/04/18 05:25:47;;;;;;;36.80;6.87;;;7.40;20.00;;;;;;5024413;28;20459;-60
2022/04/18 05:28:13;;;;;;;34.23;5.20;;;7.80;19.20;;;;;;5024843;28;20485;-59
2022/04/18 05:30:41;;;;;;;36.03;5.60;;;8.30;17.80;;;;;;5019307;28;20473;-58
2022/04/18 05:33:08;;;;;;;35.37;6.33;;;8.80;16.40;;;;;;5022708;28;21126;-59
2022/04/18 05:35:36;;;;;;;35.57;5.17;;;9.20;15.40;;;;;;5025989;28;20555;-60
2022/04/18 05:38:03;;;;;;;35.40;5.63;;;9.60;14.50;;;;;;5027876;28;20474;-60
2022/04/18 05:40:29;;;;;;;37.90;6.17;;;10.10;13.70;;;;;;5025429;28;20883;-60
2022/04/18 05:42:56;;;;;;;33.27;5.83;;;11.00;12.70;;;;;;5031631;28;20477;-59
2022/04/18 05:45:23;;;;;;;32.40;5.03;;;12.20;11.20;;;;;;5020482;28;20474;-61
2022/04/18 05:47:50;;;;;;;33.47;5.33;;;13.50;9.20;;;;;;5029067;28;21043;-61
2022/04/18 05:50:17;;;;;;;33.10;6.40;;;14.90;6.80;;;;;;5020203;28;20455;-60
2022/04/18 05:52:45;;;;;;;34.20;5.23;;;16.30;4.50;;;;;;5025958;28;20458;-61
2022/04/18 05:55:12;;;;;;;31.33;4.97;;;17.80;2.40;;;;;;5029832;28;20467;-61
2022/04/18 05:57:38;;;;;;;34.30;6.70;;;19.20;1.00;;;;;;5027416;28;20487;-62
2022/04/18 06:00:06;;;;;;;30.90;5.07;;;20.50;1.00;;;;;;5027686;28;20541;-62
2022/04/18 06:02:33;;;;;;;29.57;5.20;;;21.80;1.00;;;;;;5035880;28;20494;-61
2022/04/18 06:05:00;;;;;;;31.23;5.90;;;23.00;1.00;;;;;;5026994;28;20479;-61
2022/04/18 06:07:27;;;;;;;30.60;5.63;;;24.20;1.00;;;;;;5024927;28;20485;-61
2022/04/18 06:09:55;;;;;;;29.03;4.80;;;25.30;1.00;;;;;;5036020;28;20443;-61
2022/04/18 06:12:22;;;;;;;31.47;5.20;;;26.40;1.00;;;;;;5023243;28;20979;-61
2022/04/18 06:14:49;;;;;;;28.83;4.80;;;27.30;1.00;;;;;;5023496;28;20451;-61
2022/04/18 06:17:15;;;;;;;27.83;5.30;;;28.30;1.00;;;;;;5028964;28;20785;-61
2022/04/18 06:19:42;;;;;;;30.20;5.23;;;29.30;1.00;;;;;;5027853;28;20459;-63
2022/04/18 06:22:09;;;;;;;27.87;5.20;;;30.30;1.00;;;;;;5020809;28;20466;-62
2022/04/18 06:24:35;;;;;;;27.47;5.10;;;31.10;1.00;;;;;;5029691;28;20478;-61
2022/04/18 06:27:04;;;;;;;27.57;4.93;;;32.00;1.00;;;;;;5022863;28;20479;-61
2022/04/18 06:29:31;;;;;;;25.93;4.47;;;32.80;1.00;;;;;;5024986;28;20470;-61
2022/04/18 06:31:58;;;;;;;30.70;5.13;;;33.60;1.00;;;;;;5030320;28;20486;-60
2022/04/18 06:34:25;;;;;;;25.57;5.17;;;34.20;1.00;;;;;;5020954;28;20474;-60
2022/04/18 06:36:52;;;;;;;27.07;4.70;;;34.80;1.00;;;;;;5031001;28;20487;-63
2022/04/18 06:39:19;;;;;;;26.30;4.50;;;35.30;1.00;;;;;;5032884;28;20477;-62
2022/04/18 06:41:45;;;;;;;25.87;5.03;;;35.80;1.00;;;;;;5022352;28;20814;-61
2022/04/18 06:44:13;;;;;;;25.50;4.80;;;36.30;1.00;;;;;;5023990;28;21054;-64
2022/04/18 06:46:40;;;;;;;26.27;5.30;;;36.50;1.00;;;;;;5029027;28;21003;-63
2022/04/18 06:49:07;;;;;;;27.60;4.63;;;36.80;1.00;;;;;;5024887;28;20536;-61
2022/04/18 06:51:34;;;;;;;25.67;5.60;;;37.10;1.00;;;;;;5019666;28;21055;-61
2022/04/18 06:54:01;;;;;;;25.10;4.70;;;37.20;1.00;;;;;;5021103;28;20489;-62
2022/04/18 06:59:13;;;;;;;26.33;4.80;;;37.80;1.00;;;;;;5022994;28;20597;-60
2022/04/18 07:01:40;;;;;;;24.33;4.30;;;37.90;1.00;;;;;;5026210;28;21169;-60
2022/04/18 07:04:07;;;;;;;24.43;4.53;;;38.00;1.00;;;;;;5025675;28;20799;-63
2022/04/18 07:06:34;;;;;;;24.50;4.77;;;38.60;1.00;;;;;;5027838;28;21417;-60
2022/04/18 07:09:01;;;;;;;25.50;4.80;;;39.30;1.00;;;;;;5028307;28;20916;-61
2022/04/18 07:11:28;;;;;;;24.10;5.20;;;39.90;1.00;;;;;;5027643;28;20459;-60
2022/04/18 07:13:54;;;;;;;24.80;5.00;;;40.30;1.00;;;;;;5025536;28;20467;-63
2022/04/18 07:16:23;;;;;;;24.50;4.60;;;40.70;1.00;;;;;;5021208;28;20459;-59
2022/04/18 07:18:49;;;;;;;24.07;4.53;;;41.10;1.00;;;;;;5019382;28;20459;-59
2022/04/18 07:21:16;;;;;;;25.87;5.10;;;41.20;1.00;;;;;;5023820;28;20466;-63
2022/04/18 07:23:43;;;;;;;24.20;4.60;;;41.30;1.00;;;;;;5024616;28;21001;-64
2022/04/18 07:26:10;;;;;;;23.90;4.40;;;41.50;1.00;;;;;;5025480;28;20562;-61
2022/04/18 07:28:38;;;;;;;23.80;4.53;;;41.70;1.00;;;;;;5024056;28;20482;-63
2022/04/18 07:31:06;;;;;;;24.90;4.60;;;41.60;1.00;;;;;;5016728;28;20474;-62
2022/04/18 07:33:34;;;;;;;23.93;5.07;;;41.60;1.00;;;;;;5026020;28;20455;-61
2022/04/18 07:36:02;;;;;;;23.23;4.60;;;41.80;1.00;;;;;;5027134;28;20459;-62
2022/04/18 07:41:14;;;;;;;24.50;4.90;;;42.80;1.00;;;;;;5028078;28;20454;-61
2022/04/18 07:43:40;;;;;;;26.00;4.60;;;43.70;1.00;;;;;;5021399;28;20491;-61
2022/04/18 07:46:07;;;;;;;22.50;4.20;;;44.40;1.00;;;;;;5030350;28;20466;-64
2022/04/18 07:48:35;;;;;;;23.20;4.63;;;44.80;1.00;;;;;;5025141;28;20993;-64
2022/04/18 07:53:47;;;;;;;23.10;5.37;;;44.90;1.00;;;;;;5028010;28;20529;-64
2022/04/18 07:56:14;;;;;;;22.60;4.70;;;44.60;1.00;;;;;;5028362;28;20470;-64
2022/04/18 07:58:41;;;;;;;22.77;4.90;;;44.80;1.00;;;;;;5029735;28;20523;-63
2022/04/18 08:01:07;;;;;;;22.30;4.23;;;44.90;1.00;;;;;;5027757;28;21043;-62
2022/04/18 08:03:36;;;;;;;25.00;4.70;;;45.00;1.00;;;;;;5029873;28;20459;-59
2022/04/18 08:06:03;;;;;;;22.10;4.27;;;45.00;1.00;;;;;;5022784;28;20475;-63
2022/04/18 08:08:31;;;;;;;23.00;4.50;;;44.70;1.00;;;;;;5027383;28;21251;-62
2022/04/18 08:10:58;;;;;;;23.23;4.80;;;44.90;1.00;;;;;;5025619;28;20894;-62
2022/04/18 08:13:25;;;;;;;22.90;4.50;;;45.50;1.00;;;;;;5021957;28;20475;-62
2022/04/18 08:15:52;;;;;;;23.47;4.20;;;46.10;1.00;;;;;;5019028;28;20468;-61
2022/04/18 08:18:19;;;;;;;22.20;4.50;;;46.60;1.00;;;;;;5025319;28;20537;-62
2022/04/18 08:20:47;;;;;;;22.20;4.60;;;46.70;1.00;;;;;;5025136;28;20461;-60
2022/04/18 08:23:14;;;;;;;23.50;4.27;;;46.70;1.00;;;;;;5026425;28;20455;-60
2022/04/18 08:25:41;;;;;;;22.30;4.40;;;46.10;1.00;;;;;;5021136;28;20487;-60
2022/04/18 08:28:08;;;;;;;23.87;4.30;;;45.70;1.00;;;;;;5021064;28;20496;-62
2022/04/18 08:30:35;;;;;;;22.10;4.07;;;45.60;1.00;;;;;;5025745;28;20809;-62
2022/04/18 08:33:01;;;;;;;23.00;4.77;;;45.60;1.00;;;;;;5026448;28;20569;-62
2022/04/18 08:35:32;;;;;;;23.07;4.90;;;45.00;1.00;;;;;;5020967;28;20462;-61
2022/04/18 08:38:00;;;;;;;22.47;4.20;;;44.80;1.00;;;;;;5017638;28;21009;-62
2022/04/18 08:40:27;;;;;;;22.13;4.50;;;44.90;1.00;;;;;;5018924;28;20467;-62
2022/04/18 08:42:55;;;;;;;23.20;4.57;;;45.60;1.00;;;;;;5017427;28;20470;-65
2022/04/18 08:45:24;;;;;;;22.80;4.93;;;46.30;1.00;;;;;;5022455;28;20514;-62
2022/04/18 08:53:25;;;;;;;23.43;4.13;;;44.80;1.00;;;;;;5019187;28;20446;-61
2022/04/18 08:55:52;;;;;;;22.63;4.73;;;44.70;1.00;;;;;;5015921;28;20469;-64
2022/04/18 08:58:20;;;;;;;22.37;4.00;;;44.90;1.00;;;;;;5022073;28;21131;-61
2022/04/18 09:00:47;;;;;;;23.30;4.33;;;44.80;1.00;;;;;;5018460;28;21125;-61
2022/04/18 09:03:14;;;;;;;23.70;4.33;;;44.30;1.00;;;;;;5017799;28;20468;-61
2022/04/18 09:05:40;;;;;;;22.67;4.20;;;44.60;1.00;;;;;;5023936;28;20479;-62
2022/04/18 09:08:09;;;;;;;22.57;4.20;;;45.00;1.00;;;;;;5022253;28;20482;-62
2022/04/18 09:10:38;;;;;;;24.87;4.53;;;44.10;1.00;;;;;;5022981;28;20517;-61
2022/04/18 09:13:07;;;;;;;24.17;4.10;;;42.70;1.00;;;;;;5026435;28;20486;-61
2022/04/18 09:15:39;;;;;;;24.23;4.43;;;41.90;1.00;;;;;;5030401;28;20940;-61
2022/04/18 09:18:13;;;;;;;24.30;5.13;;;41.60;1.00;;;;;;5019445;28;20498;-61
2022/04/18 09:20:45;;;;;;;25.50;5.80;;;41.10;1.00;;;;;;5027945;28;20842;-61
2022/04/18 09:23:24;;;;;;;24.27;4.77;;;41.40;1.00;;;;;;5026441;28;20471;-61
2022/04/18 09:25:57;;;;;;;23.73;4.10;;;41.40;1.00;;;;;;5021510;28;20482;-61
2022/04/18 09:28:25;;;;;;;25.00;5.10;;;41.60;1.00;;;;;;5031103;28;20570;-62
2022/04/18 09:31:00;;;;;;;25.90;5.83;;;40.10;1.00;;;;;;5032445;28;20952;-61
2022/04/18 09:33:30;;;;;;;25.60;4.43;;;39.30;1.00;;;;;;5022159;28;20462;-61
2022/04/18 09:36:10;;;;;;;26.30;4.10;;;39.70;1.00;;;;;;5025088;28;20459;-61
2022/04/18 09:38:39;;;;;;;24.63;4.30;;;40.30;1.00;;;;;;5025191;28;20495;-61
2022/04/18 09:41:07;;;;;;;25.07;3.80;;;40.50;1.00;;;;;;5026814;28;20944;-62
2022/04/18 09:43:42;;;;;;;25.40;5.03;;;41.20;1.00;;;;;;5028849;28;20471;-65
2022/04/18 09:46:10;;;;;;;23.60;4.53;;;42.10;1.00;;;;;;5029110;28;20490;-62
2022/04/18 09:48:37;;;;;;;24.40;4.03;;;42.20;1.00;;;;;;5020521;28;20486;-61
2022/04/18 09:51:09;;;;;;;23.37;3.80;;;42.70;1.00;;;;;;5024870;28;20471;-60
2022/04/18 09:53:37;;;;;;;24.20;4.10;;;42.60;1.00;;;;;;5018337;28;20465;-61
2022/04/18 09:56:05;;;;;;;24.10;4.83;;;42.30;1.00;;;;;;5022018;28;20467;-61
2022/04/18 09:58:34;;;;;;;27.97;5.70;;;41.80;1.00;;;;;;5023899;28;20475;-61
2022/04/18 10:01:03;;;;;;;25.00;4.10;;;41.00;1.00;;;;;;5028760;28;20560;-61
2022/04/18 10:03:31;;;;;;;24.53;4.00;;;40.60;1.00;;;;;;5031836;28;20462;-60
2022/04/18 10:05:59;;;;;;;24.03;3.97;;;40.70;1.00;;;;;;5029136;28;20615;-60
2022/04/18 10:08:27;;;;;;;23.97;4.37;;;41.30;1.00;;;;;;5027927;28;20544;-62
2022/04/18 10:10:53;;;;;;;23.90;4.27;;;41.20;1.00;;;;;;5027200;28;20473;-61
2022/04/18 10:13:21;;;;;;;24.60;4.13;;;40.90;1.00;;;;;;5027661;28;21106;-61
2022/04/18 10:15:51;;;;;;;24.10;4.40;;;40.40;1.00;;;;;;5031235;28;20943;-61
2022/04/18 10:18:18;;;;;;;24.40;4.40;;;40.10;1.00;;;;;;5030617;28;20486;-61
2022/04/18 10:20:57;;;;;;;24.70;4.30;;;40.50;1.00;;;;;;5025192;28;20470;-61
2022/04/18 10:24:09;;;;;;;24.00;4.40;;;41.10;1.00;;;;;;5029799;28;20474;-62
2022/04/18 10:27:00;;;;;;;27.50;7.17;;;40.80;1.00;;;;;;4989954;28;20486;-61
2022/04/18 10:29:31;;;;;;;24.60;4.40;;;40.80;1.00;;;;;;5028668;28;20526;-62
2022/04/18 10:32:03;;;;;;;24.40;4.27;;;40.90;1.00;;;;;;5026545;28;20471;-60
2022/04/18 10:34:32;;;;;;;24.10;4.50;;;41.20;1.00;;;;;;5030460;28;20774;-62
2022/04/18 10:37:01;;;;;;;24.57;5.07;;;41.00;1.00;;;;;;5031853;28;20903;-61
2022/04/18 10:39:33;;;;;;;25.23;4.90;;;40.80;1.00;;;;;;5027017;28;20467;-61
2022/04/18 10:42:19;;;;;;;24.80;4.40;;;40.10;1.00;;;;;;5024609;28;20459;-60
2022/04/18 10:44:58;;;;;;;25.70;4.43;;;39.80;1.00;;;;;;5028981;28;20474;-62
2022/04/18 10:47:27;;;;;;;26.20;4.90;;;38.50;1.00;;;;;;5027488;28;20529;-61
2022/04/18 10:50:19;;;;;;;25.80;4.90;;;36.10;1.00;;;;;;5024100;28;20475;-60
2022/04/18 10:53:08;;;;;;;26.33;4.80;;;33.00;1.00;;;;;;5005028;28;20467;-60
2022/04/18 10:55:34;;;;;;;27.20;5.07;;;30.60;1.00;;;;;;5022131;28;20471;-60
2022/04/18 10:58:13;;;;;;;27.40;5.07;;;28.80;1.00;;;;;;5020116;28;20516;-60
2022/04/18 11:00:59;;;;;;;28.67;5.27;;;27.30;1.00;;;;;;5019390;28;20503;-59
2022/04/18 11:04:00;;;;;;;28.30;5.20;;;25.90;1.00;;;;;;5017759;28;21675;-63
2022/04/18 11:06:49;;;;;;;30.33;5.00;;;24.40;1.00;;;;;;4985039;28;21029;-60
2022/04/18 11:09:19;;;;;;;28.80;5.17;;;23.20;1.00;;;;;;5025410;28;20473;-60
2022/04/18 11:11:48;;;;;;;28.77;4.57;;;22.50;1.00;;;;;;5023238;28;20838;-59
2022/04/18 11:14:18;;;;;;;28.20;4.50;;;21.80;1.00;;;;;;5033404;28;20475;-60
2022/04/18 11:16:58;;;;;;;29.63;4.70;;;21.40;1.00;;;;;;5024932;28;20491;-59
2022/04/18 11:19:28;;;;;;;29.23;4.83;;;21.00;1.00;;;;;;5026694;28;20454;-63
2022/04/18 11:22:20;;;;;;;30.90;7.07;;;20.60;1.00;;;;;;5017666;28;20470;-62
2022/04/18 11:24:59;;;;;;;31.40;5.40;;;20.20;1.00;;;;;;5017718;28;20549;-61
2022/04/18 11:27:32;;;;;;;30.10;5.73;;;19.80;1.00;;;;;;5022069;28;20483;-62
2022/04/18 11:30:00;;;;;;;30.40;5.70;;;19.50;1.00;;;;;;5021856;28;20842;-61
2022/04/18 11:32:29;;;;;;;33.60;6.73;;;19.20;1.00;;;;;;5021038;28;20506;-60
2022/04/18 11:35:00;;;;;;;30.20;5.27;;;18.80;1.00;;;;;;5031646;28;20979;-61
2022/04/18 11:37:28;;;;;;;30.47;4.53;;;18.60;1.00;;;;;;5028881;28;20475;-61
2022/04/18 11:39:56;;;;;;;31.97;6.40;;;18.40;1.00;;;;;;5022374;28;20995;-61
2022/04/18 11:42:24;;;;;;;30.17;4.70;;;18.00;1.00;;;;;;5029559;28;20460;-61
2022/04/18 11:44:53;;;;;;;31.57;5.37;;;17.80;1.00;;;;;;5026768;28;20487;-62
2022/04/18 11:47:22;;;;;;;31.63;5.87;;;17.60;1.00;;;;;;5033587;28;20487;-60
2022/04/18 11:49:50;;;;;;;30.37;5.23;;;17.30;1.00;;;;;;5021804;28;20464;-60
2022/04/18 11:52:20;;;;;;;31.97;5.97;;;17.10;1.00;;;;;;5022037;28;21015;-61
2022/04/18 11:54:55;;;;;;;31.03;5.20;;;16.90;1.00;;;;;;5017916;28;20536;-61
2022/04/18 11:57:22;;;;;;;29.90;4.97;;;16.90;1.00;;;;;;5021196;28;20503;-61
2022/04/18 11:59:48;;;;;;;31.60;4.90;;;16.70;1.00;;;;;;5019794;28;20463;-61
2022/04/18 12:08:01;;;;;;;30.83;5.60;;;16.40;1.00;;;;;;4960076;28;20572;-61
2022/04/18 12:10:31;;;;;;;31.30;5.13;;;16.40;1.00;;;;;;4963982;28;20501;-60
2022/04/18 12:12:59;;;;;;;30.60;4.13;;;16.30;1.00;;;;;;5000112;28;20463;-62
2022/04/18 12:15:28;;;;;;;30.60;5.30;;;16.20;1.00;;;;;;5031529;28;20466;-60
2022/04/18 12:17:56;;;;;;;31.60;5.53;;;16.10;1.00;;;;;;5020775;28;20488;-61
2022/04/18 12:20:25;;;;;;;30.60;4.63;;;16.00;1.00;;;;;;5033694;28;20471;-61
2022/04/18 12:22:53;;;;;;;31.43;5.93;;;15.90;1.00;;;;;;5015905;28;20992;-60
2022/04/18 12:25:23;;;;;;;31.20;4.80;;;15.90;1.00;;;;;;5023895;28;20475;-60
2022/04/18 12:27:50;;;;;;;30.93;4.87;;;15.80;1.00;;;;;;5023727;28;20478;-61
2022/04/18 12:30:17;;;;;;;31.20;5.50;;;15.80;1.00;;;;;;5027265;28;20455;-61
2022/04/18 12:32:47;;;;;;;30.77;4.27;;;15.80;1.00;;;;;;5027752;28;20483;-60
2022/04/18 12:35:15;;;;;;;29.40;3.90;;;15.70;1.00;;;;;;5023109;28;20463;-61
2022/04/18 12:37:48;;;;;;;30.80;4.90;;;15.70;1.00;;;;;;5020111;28;20480;-61
2022/04/18 12:40:17;;;;;;;30.40;4.83;;;15.80;1.00;;;;;;5027236;28;21027;-60
2022/04/18 12:42:51;;;;;;;31.47;4.90;;;15.80;1.00;;;;;;5024452;28;20466;-60
2022/04/18 12:45:18;;;;;;;32.77;6.30;;;15.70;1.00;;;;;;5021742;28;20481;-60
2022/04/18 12:47:45;;;;;;;30.57;4.83;;;15.70;1.00;;;;;;5024837;28;20478;-64
2022/04/18 12:50:14;;;;;;;30.10;4.43;;;15.70;1.00;;;;;;5024167;28;20565;-61
2022/04/18 12:52:49;;;;;;;31.20;4.97;;;15.70;1.40;;;;;;5024920;28;20466;-61
2022/04/18 12:55:16;;;;;;;31.60;4.40;;;15.80;1.40;;;;;;5024811;28;20547;-61
2022/04/18 12:57:48;;;;;;;30.87;5.10;;;15.80;2.00;;;;;;5021282;28;20499;-60
2022/04/18 13:00:17;;;;;;;30.50;5.20;;;15.90;2.60;;;;;;5023490;28;20892;-61
2022/04/18 13:02:58;;;;;;;30.23;4.80;;;15.90;1.70;;;;;;5027218;28;20463;-60
2022/04/18 13:05:27;;;;;;;29.50;4.23;;;16.00;2.90;;;;;;5026534;28;21254;-60
2022/04/18 13:07:57;;;;;;;32.53;6.27;;;16.10;3.80;;;;;;5023313;28;20513;-60
2022/04/18 13:10:28;;;;;;;32.60;5.50;;;16.10;3.30;;;;;;5036141;28;20470;-59
2022/04/18 13:13:06;;;;;;;31.00;3.73;;;16.20;2.30;;;;;;5030884;28;20462;-60
2022/04/18 13:15:34;;;;;;;30.80;4.37;;;16.20;2.90;;;;;;5026984;28;20983;-60
2022/04/18 13:18:04;;;;;;;32.30;4.20;;;16.30;2.70;;;;;;5022608;28;20493;-60
2022/04/18 13:20:32;;;;;;;31.43;5.00;;;16.40;3.20;;;;;;5023126;28;20986;-60
2022/04/18 13:23:00;;;;;;;30.30;4.47;;;16.40;3.00;;;;;;5021127;28;20459;-60